createdAt,value
2023-03-11T00:02:12.424Z,100.00
2023-03-11T00:04:42.389Z,100.00
2023-03-11T00:07:13.766Z,100.00
2023-03-11T00:09:46.974Z,100.00
2023-03-11T00:12:16.840Z,100.00
2023-03-11T00:14:46.651Z,100.00
2023-03-11T00:17:16.584Z,100.00
2023-03-11T00:19:48.897Z,100.00
2023-03-11T00:22:18.750Z,99.69
2023-03-11T00:24:51.216Z,99.44
2023-03-11T00:27:21.093Z,99.06
2023-03-11T00:29:50.969Z,98.49
2023-03-11T00:32:20.841Z,98.22
2023-03-11T00:34:50.739Z,97.90
2023-03-11T00:37:20.575Z,97.34
2023-03-11T00:39:53.925Z,97.01
2023-03-11T00:42:23.758Z,96.61
2023-03-11T00:44:53.648Z,96.55
2023-03-11T00:47:23.456Z,96.11
2023-03-11T00:49:53.266Z,95.82
2023-03-11T00:52:23.911Z,95.54
2023-03-11T00:54:56.332Z,95.22
2023-03-11T00:57:27.971Z,95.07
2023-03-11T00:59:57.822Z,94.67
2023-03-11T01:02:27.666Z,94.45
2023-03-11T01:04:58.230Z,94.04
2023-03-11T01:07:28.037Z,93.90
2023-03-11T01:10:00.554Z,93.68
2023-03-11T01:12:30.588Z,93.53
2023-03-11T01:15:00.607Z,93.41
2023-03-11T01:17:35.765Z,93.26
2023-03-11T01:20:06.488Z,92.98
2023-03-11T01:22:36.332Z,92.96
2023-03-11T01:25:10.495Z,92.69
2023-03-11T01:27:41.196Z,92.52
2023-03-11T01:30:13.219Z,92.11
2023-03-11T01:32:43.133Z,91.89
2023-03-11T01:35:17.445Z,91.86
2023-03-11T01:37:49.917Z,91.31
2023-03-11T01:40:27.404Z,91.09
2023-03-11T01:42:57.333Z,90.75
2023-03-11T01:45:38.785Z,90.62
2023-03-11T01:48:08.858Z,90.24
2023-03-11T01:50:43.374Z,89.92
2023-03-11T01:53:14.010Z,89.62
2023-03-11T01:55:47.100Z,89.55
2023-03-11T01:58:26.379Z,89.19
2023-03-11T02:00:58.283Z,88.83
2023-03-11T02:03:32.376Z,88.58
2023-03-11T02:06:05.570Z,88.38
2023-03-11T02:08:36.397Z,88.15
2023-03-11T02:11:12.901Z,87.78
2023-03-11T02:13:44.698Z,87.63
2023-03-11T02:16:14.870Z,87.42
2023-03-11T02:18:47.128Z,87.35
2023-03-11T02:21:26.591Z,87.33
2023-03-11T02:24:02.815Z,87.05
2023-03-11T02:26:41.926Z,87.04
2023-03-11T02:29:15.190Z,86.94
2023-03-11T02:31:46.483Z,86.79
2023-03-11T02:34:26.493Z,86.77
2023-03-11T02:36:56.856Z,86.91
2023-03-11T02:39:34.547Z,86.87
2023-03-11T02:42:09.450Z,86.73
2023-03-11T02:44:45.262Z,86.63
2023-03-11T02:47:15.598Z,86.70
2023-03-11T02:49:45.728Z,86.55
2023-03-11T02:52:15.550Z,86.61
2023-03-11T02:54:45.356Z,86.42
2023-03-11T02:57:15.298Z,86.36
2023-03-11T02:59:47.863Z,86.40
2023-03-11T03:02:17.729Z,86.26
2023-03-11T03:04:47.577Z,86.33
2023-03-11T03:07:17.563Z,86.23
2023-03-11T03:09:55.918Z,86.04
2023-03-11T03:12:25.871Z,85.96
2023-03-11T03:14:58.397Z,85.87
2023-03-11T03:17:29.394Z,85.79
2023-03-11T03:20:01.639Z,85.78
2023-03-11T03:22:31.618Z,85.76
2023-03-11T03:25:01.556Z,85.67
2023-03-11T03:27:31.556Z,85.63
2023-03-11T03:30:05.125Z,85.60
2023-03-11T03:32:37.658Z,85.64
2023-03-11T03:35:09.136Z,85.54
2023-03-11T03:40:42.386Z,85.63
2023-03-11T03:43:30.012Z,85.64
2023-03-11T03:46:05.136Z,85.57
2023-03-11T03:48:35.159Z,85.43
2023-03-11T03:51:10.179Z,85.27
2023-03-11T03:53:40.430Z,85.31
2023-03-11T03:56:12.914Z,85.23
2023-03-11T03:58:43.250Z,85.06
2023-03-11T04:01:16.655Z,85.12
2023-03-11T04:03:46.735Z,85.05
2023-03-11T04:06:23.863Z,85.16
2023-03-11T04:08:55.116Z,84.96
2023-03-11T04:11:25.838Z,84.98
2023-03-11T04:13:58.094Z,85.02
2023-03-11T04:16:33.120Z,85.19
2023-03-11T04:19:03.075Z,85.03
2023-03-11T04:21:33.544Z,85.10
2023-03-11T04:24:04.041Z,85.04
2023-03-11T04:26:34.302Z,85.17
2023-03-11T04:29:04.370Z,85.30
2023-03-11T04:31:38.298Z,85.26
2023-03-11T04:34:08.174Z,85.20
2023-03-11T04:36:38.075Z,85.34
2023-03-11T04:39:07.953Z,85.10
2023-03-11T04:41:41.069Z,85.39
2023-03-11T04:44:11.022Z,85.32
2023-03-11T04:46:43.611Z,85.41
2023-03-11T04:49:13.510Z,85.38
2023-03-11T04:51:43.548Z,85.40
2023-03-11T04:54:14.290Z,85.59
2023-03-11T04:56:44.065Z,85.44
2023-03-11T04:59:13.986Z,85.48
2023-03-11T05:01:46.887Z,85.45
2023-03-11T05:04:17.077Z,85.48
2023-03-11T05:06:47.071Z,85.53
2023-03-11T05:09:16.965Z,85.59
2023-03-11T05:11:46.990Z,85.65
2023-03-11T05:14:19.094Z,85.66
2023-03-11T05:16:51.878Z,85.73
2023-03-11T05:19:35.481Z,85.66
2023-03-11T05:22:06.058Z,85.83
2023-03-11T05:24:36.566Z,85.83
2023-03-11T05:27:07.499Z,85.95
2023-03-11T05:29:37.502Z,85.93
2023-03-11T05:32:10.947Z,85.99
2023-03-11T05:34:41.104Z,86.04
2023-03-11T05:40:02.101Z,86.22
2023-03-11T05:42:31.972Z,86.18
2023-03-11T05:45:02.748Z,86.34
2023-03-11T05:47:35.282Z,86.29
2023-03-11T05:50:06.001Z,86.42
2023-03-11T05:52:35.967Z,86.49
2023-03-11T05:55:06.219Z,86.50
2023-03-11T05:57:36.061Z,86.59
2023-03-11T06:00:12.336Z,86.65
2023-03-11T06:02:45.299Z,86.80
2023-03-11T06:05:18.341Z,86.97
2023-03-11T06:07:48.554Z,86.97
2023-03-11T06:10:19.865Z,87.18
2023-03-11T06:30:18.822Z,87.53
2023-03-11T06:32:55.921Z,87.72
2023-03-11T06:35:26.013Z,87.83
2023-03-11T06:41:33.585Z,87.92
2023-03-11T06:41:45.198Z,87.78
2023-03-11T06:44:04.434Z,88.05
2023-03-11T06:46:59.685Z,88.13
2023-03-11T06:49:27.639Z,87.99
2023-03-11T06:51:58.239Z,88.19
2023-03-11T06:54:28.127Z,88.11
2023-03-11T06:57:07.089Z,88.19
2023-03-11T06:59:37.290Z,88.11
2023-03-11T07:02:10.708Z,88.05
2023-03-11T07:04:40.751Z,88.17
2023-03-11T07:07:10.706Z,88.30
2023-03-11T07:09:40.613Z,88.33
2023-03-11T07:12:11.446Z,88.10
2023-03-11T07:14:41.179Z,88.44
2023-03-11T07:17:13.542Z,88.37
2023-03-11T07:19:43.292Z,88.47
2023-03-11T07:22:13.092Z,88.53
2023-03-11T07:24:42.864Z,88.61
2023-03-11T07:27:12.724Z,88.52
2023-03-11T07:29:42.778Z,88.77
2023-03-11T07:32:15.359Z,88.76
2023-03-11T07:34:45.798Z,88.82
2023-03-11T07:37:16.537Z,88.91
2023-03-11T07:39:46.341Z,89.23
2023-03-11T07:42:16.137Z,89.26
2023-03-11T07:44:45.911Z,89.34
2023-03-11T07:47:18.371Z,89.61
2023-03-11T07:49:48.974Z,89.67
2023-03-11T07:52:19.104Z,89.63
2023-03-11T07:54:48.925Z,89.75
2023-03-11T07:57:18.940Z,90.04
2023-03-11T07:59:48.744Z,90.07
2023-03-11T08:02:21.229Z,90.15
2023-03-11T08:04:51.084Z,90.37
2023-03-11T08:07:20.931Z,90.55
2023-03-11T08:09:50.705Z,90.89
2023-03-11T08:12:20.515Z,90.91
2023-03-11T08:14:50.295Z,91.16
2023-03-11T08:17:22.662Z,91.11
2023-03-11T08:19:59.939Z,91.26
2023-03-11T08:22:29.726Z,91.44
2023-03-11T08:24:59.695Z,91.42
2023-03-11T08:27:31.079Z,91.66
2023-03-11T08:30:01.939Z,91.69
2023-03-11T08:32:37.428Z,91.64
2023-03-11T08:35:07.924Z,91.42
2023-03-11T08:37:37.821Z,91.44
2023-03-11T08:40:10.606Z,91.51
2023-03-11T08:42:41.986Z,91.30
2023-03-11T08:45:13.304Z,91.24
2023-03-11T08:47:45.803Z,91.04
2023-03-11T08:50:18.749Z,90.95
2023-03-11T08:52:48.713Z,90.85
2023-03-11T08:55:25.200Z,90.46
2023-03-11T08:57:55.495Z,90.36
2023-03-11T09:00:26.504Z,90.08
2023-03-11T09:02:59.205Z,89.81
2023-03-11T09:05:29.270Z,89.84
2023-03-11T09:07:59.095Z,89.60
2023-03-11T09:10:29.021Z,89.24
2023-03-11T09:12:58.980Z,89.17
2023-03-11T09:15:29.760Z,89.04
2023-03-11T09:18:03.386Z,88.94
2023-03-11T09:20:33.238Z,88.67
2023-03-11T09:23:03.106Z,88.40
2023-03-11T09:25:33.384Z,88.18
2023-03-11T09:28:03.241Z,87.92
2023-03-11T09:30:33.234Z,87.67
2023-03-11T09:33:05.766Z,87.52
2023-03-11T09:35:35.883Z,87.31
2023-03-11T09:38:05.861Z,87.08
2023-03-11T09:40:48.551Z,86.86
2023-03-11T09:43:28.974Z,86.76
2023-03-11T09:46:09.113Z,86.55
2023-03-11T09:48:47.501Z,86.43
2023-03-11T09:51:22.566Z,86.18
2023-03-11T09:54:02.733Z,85.99
2023-03-11T09:56:35.640Z,85.88
2023-03-11T09:59:10.149Z,85.82
2023-03-11T10:01:45.424Z,85.67
2023-03-11T10:04:23.567Z,85.65
2023-03-11T10:06:53.602Z,85.37
2023-03-11T10:09:39.361Z,85.31
2023-03-11T10:12:30.467Z,85.16
2023-03-11T10:15:17.515Z,85.12
2023-03-11T10:18:02.034Z,84.92
2023-03-11T10:20:41.898Z,84.85
2023-03-11T10:23:23.276Z,84.60
2023-03-11T10:26:03.179Z,84.48
2023-03-11T10:28:39.770Z,84.44
2023-03-11T10:31:21.833Z,84.30
2023-03-11T10:33:56.362Z,84.32
2023-03-11T10:36:35.929Z,84.21
2023-03-11T10:39:07.482Z,84.20
2023-03-11T10:41:47.691Z,84.19
2023-03-11T10:44:23.366Z,84.08
2023-03-11T10:46:53.262Z,83.92
2023-03-11T10:49:28.328Z,83.93
2023-03-11T10:52:00.899Z,83.84
2023-03-11T10:54:33.710Z,83.82
2023-03-11T10:57:05.262Z,83.77
2023-03-11T10:59:40.010Z,83.87
2023-03-11T11:02:26.567Z,83.91
2023-03-11T11:05:24.599Z,84.07
2023-03-11T11:08:07.205Z,84.07
2023-03-11T11:10:37.990Z,83.95
2023-03-11T11:13:22.094Z,84.02
2023-03-11T11:15:57.611Z,84.02
2023-03-11T11:18:30.978Z,83.99
2023-03-11T11:21:06.987Z,83.93
2023-03-11T11:23:43.783Z,84.11
2023-03-11T11:26:20.795Z,84.03
2023-03-11T11:29:09.334Z,84.05
2023-03-11T11:31:40.954Z,83.86
2023-03-11T11:34:31.150Z,83.86
2023-03-11T11:37:03.705Z,83.76
2023-03-11T11:39:51.995Z,83.68
2023-03-11T11:42:24.342Z,83.64
2023-03-11T11:44:58.450Z,83.58
2023-03-11T11:47:33.229Z,83.54
2023-03-11T11:50:05.185Z,83.56
2023-03-11T11:52:40.112Z,83.40
2023-03-11T11:55:26.072Z,83.55
2023-03-11T11:57:56.118Z,83.52
2023-03-11T12:00:31.176Z,83.47
2023-03-11T12:03:30.728Z,83.56
2023-03-11T12:06:03.062Z,83.50
2023-03-11T12:08:42.900Z,83.31
2023-03-11T12:11:23.932Z,83.30
2023-03-11T12:14:04.628Z,83.29
2023-03-11T12:16:44.959Z,83.15
2023-03-11T12:19:22.671Z,83.20
2023-03-11T12:22:11.537Z,83.06
2023-03-11T12:25:05.888Z,83.05
2023-03-11T12:27:47.013Z,82.96
2023-03-11T12:30:21.595Z,82.88
2023-03-11T12:32:56.146Z,82.89
2023-03-11T12:35:30.049Z,82.74
2023-03-11T12:38:08.170Z,82.63
2023-03-11T12:40:59.977Z,82.52
2023-03-11T12:44:05.619Z,82.46
2023-03-11T12:47:03.985Z,82.44
2023-03-11T12:49:36.141Z,82.33
2023-03-11T12:52:09.136Z,82.36
2023-03-11T12:54:40.101Z,82.31
2023-03-11T12:57:33.496Z,82.42
2023-03-11T13:00:23.127Z,82.29
2023-03-11T13:03:33.081Z,82.26
2023-03-11T13:06:17.179Z,82.32
2023-03-11T13:08:50.594Z,82.22
2023-03-11T13:11:38.714Z,82.13
2023-03-11T13:14:33.239Z,81.93
2023-03-11T13:17:30.955Z,81.96
2023-03-11T13:20:01.649Z,81.98
2023-03-11T13:22:47.621Z,82.02
2023-03-11T13:25:38.207Z,81.98
2023-03-11T13:28:38.817Z,81.99
2023-03-11T13:31:33.835Z,81.99
2023-03-11T13:34:17.031Z,81.90
2023-03-11T13:36:58.150Z,81.78
2023-03-11T13:39:52.517Z,81.52
2023-03-11T13:42:30.831Z,81.33
2023-03-11T13:45:01.982Z,81.27
2023-03-11T13:47:33.275Z,81.06
2023-03-11T13:50:11.146Z,80.94
2023-03-11T13:52:49.544Z,80.75
2023-03-11T13:55:23.221Z,80.76
2023-03-11T13:57:54.748Z,80.59
2023-03-11T14:00:28.621Z,80.49
2023-03-11T14:03:04.408Z,80.49
2023-03-11T14:05:38.998Z,80.46
2023-03-11T14:08:24.224Z,80.45
2023-03-11T14:10:57.748Z,80.49
2023-03-11T14:13:29.063Z,80.49
2023-03-11T14:16:05.479Z,80.46
2023-03-11T14:18:38.537Z,80.40
2023-03-11T14:21:16.703Z,80.40
2023-03-11T14:23:50.444Z,80.19
2023-03-11T14:26:22.945Z,80.23
2023-03-11T14:28:55.084Z,80.39
2023-03-11T14:31:28.582Z,80.23
2023-03-11T14:34:04.368Z,80.25
2023-03-11T14:36:43.684Z,80.21
2023-03-11T14:39:31.289Z,80.22
2023-03-11T14:42:09.895Z,80.19
2023-03-11T14:44:47.184Z,80.43
2023-03-11T14:47:24.039Z,80.46
2023-03-11T14:49:55.410Z,80.71
2023-03-11T14:52:37.425Z,80.78
2023-03-11T14:55:11.745Z,80.93
2023-03-11T14:57:48.040Z,81.10
2023-03-11T15:00:21.885Z,81.16
2023-03-11T15:03:07.660Z,81.30
2023-03-11T15:05:45.425Z,81.36
2023-03-11T15:08:21.622Z,81.66
2023-03-11T15:11:08.521Z,81.82
2023-03-11T15:13:39.291Z,81.98
2023-03-11T15:16:23.832Z,82.32
2023-03-11T15:18:54.498Z,82.55
2023-03-11T15:21:26.260Z,82.84
2023-03-11T15:24:05.363Z,83.07
2023-03-11T15:26:40.654Z,83.31
2023-03-11T15:29:21.488Z,83.75
2023-03-11T15:31:51.972Z,84.02
2023-03-11T15:34:31.875Z,84.26
2023-03-11T15:37:07.290Z,84.44
2023-03-11T15:39:51.364Z,84.58
2023-03-11T15:42:24.589Z,84.77
2023-03-11T15:45:21.780Z,84.95
2023-03-11T15:47:55.051Z,85.03
2023-03-11T15:50:37.605Z,85.25
2023-03-11T15:53:19.106Z,85.42
2023-03-11T15:55:51.987Z,85.38
2023-03-11T15:58:23.672Z,85.44
2023-03-11T16:00:56.356Z,85.35
2023-03-11T16:03:27.054Z,85.50
2023-03-11T16:05:56.803Z,85.49
2023-03-11T16:08:26.630Z,85.56
2023-03-11T16:10:59.010Z,85.47
2023-03-11T16:13:28.820Z,85.49
2023-03-11T16:15:58.690Z,85.62
2023-03-11T16:18:29.247Z,85.48
2023-03-11T16:20:59.466Z,85.33
2023-03-11T16:23:48.551Z,85.23
2023-03-11T16:26:25.399Z,85.07
2023-03-11T16:28:55.246Z,84.90
2023-03-11T16:31:25.388Z,84.74
2023-03-11T16:33:55.171Z,84.41
2023-03-11T16:36:24.954Z,84.22
2023-03-11T16:38:56.129Z,84.03
2023-03-11T16:41:28.520Z,83.83
2023-03-11T16:43:58.263Z,83.58
2023-03-11T16:46:28.041Z,83.41
2023-03-11T16:48:57.842Z,83.13
2023-03-11T16:51:27.641Z,83.05
2023-03-11T16:53:57.448Z,82.89
2023-03-11T16:56:30.008Z,82.69
2023-03-11T16:58:59.907Z,82.51
2023-03-11T17:01:29.881Z,82.41
2023-03-11T17:03:59.695Z,82.14
2023-03-11T17:06:29.492Z,82.13
2023-03-11T17:08:59.240Z,81.95
2023-03-11T17:11:33.361Z,81.97
2023-03-11T17:14:15.517Z,81.89
2023-03-11T17:16:46.289Z,81.72
2023-03-11T17:19:16.772Z,81.74
2023-03-11T17:21:46.884Z,81.81
2023-03-11T17:24:17.444Z,81.95
2023-03-11T17:26:49.816Z,82.00
2023-03-11T17:29:19.654Z,81.96
2023-03-11T17:31:52.481Z,82.05
2023-03-11T17:34:23.823Z,82.26
2023-03-11T17:36:53.851Z,82.28
2023-03-11T17:39:23.636Z,82.38
2023-03-11T17:41:55.990Z,82.45
2023-03-11T17:44:25.778Z,82.66
2023-03-11T17:46:55.629Z,82.69
2023-03-11T17:49:25.975Z,82.97
2023-03-11T17:51:55.735Z,83.00
2023-03-11T17:54:25.900Z,83.20
2023-03-11T17:57:05.260Z,83.42
2023-03-11T17:59:35.058Z,83.53
2023-03-11T18:02:05.262Z,83.76
2023-03-11T18:04:35.043Z,83.83
2023-03-11T18:07:04.841Z,84.06
2023-03-11T18:09:34.586Z,84.16
2023-03-11T18:12:07.720Z,84.34
2023-03-11T18:14:38.549Z,84.50
2023-03-11T18:17:08.379Z,84.81
2023-03-11T18:19:38.278Z,84.97
2023-03-11T18:22:09.207Z,85.10
2023-03-11T18:24:38.958Z,85.24
2023-03-11T18:27:11.460Z,85.39
2023-03-11T18:29:41.244Z,85.56
2023-03-11T18:32:11.007Z,85.71
2023-03-11T18:34:41.790Z,85.85
2023-03-11T18:37:11.885Z,86.18
2023-03-11T18:39:42.172Z,86.35
2023-03-11T18:42:16.050Z,86.41
2023-03-11T18:44:45.867Z,86.56
2023-03-11T18:47:15.695Z,86.75
2023-03-11T18:49:46.610Z,86.96
2023-03-11T18:52:16.374Z,87.04
2023-03-11T18:54:46.103Z,87.26
2023-03-11T18:57:18.445Z,87.26
2023-03-11T18:59:51.947Z,87.51
2023-03-11T19:02:21.710Z,87.42
2023-03-11T19:04:51.453Z,87.50
2023-03-11T19:07:22.759Z,87.77
2023-03-11T19:09:56.513Z,87.82
2023-03-11T19:12:30.984Z,87.87
2023-03-11T19:15:00.733Z,88.13
2023-03-11T19:17:30.488Z,88.24
2023-03-11T19:20:00.275Z,88.33
2023-03-11T19:22:31.567Z,88.36
2023-03-11T19:25:01.355Z,88.57
2023-03-11T19:27:35.079Z,88.79
2023-03-11T19:30:07.196Z,88.83
2023-03-11T19:32:37.012Z,88.96
2023-03-11T19:35:07.479Z,89.12
2023-03-11T19:37:37.223Z,89.04
2023-03-11T19:40:09.726Z,89.23
2023-03-11T19:42:43.455Z,89.43
2023-03-11T19:45:14.287Z,89.46
2023-03-11T19:47:46.595Z,89.54
2023-03-11T19:50:16.414Z,89.63
2023-03-11T19:52:46.392Z,89.74
2023-03-11T19:55:16.383Z,89.76
2023-03-11T19:57:48.897Z,89.90
2023-03-11T20:00:20.009Z,90.00
2023-03-11T20:02:49.892Z,90.00
2023-03-11T20:05:21.277Z,90.16
2023-03-11T20:07:51.154Z,90.22
2023-03-11T20:10:21.225Z,90.30
2023-03-11T20:13:02.193Z,90.25
2023-03-11T20:15:32.423Z,90.26
2023-03-11T20:18:05.960Z,90.54
2023-03-11T20:20:36.945Z,90.58
2023-03-11T20:23:06.840Z,90.44
2023-03-11T20:25:36.638Z,90.49
2023-03-11T20:28:09.426Z,90.70
2023-03-11T20:30:42.691Z,90.64
2023-03-11T20:33:12.516Z,90.81
2023-03-11T20:35:42.562Z,90.72
2023-03-11T20:38:17.614Z,90.80
2023-03-11T20:40:47.375Z,90.80
2023-03-11T20:43:19.753Z,90.86
2023-03-11T20:45:49.583Z,91.03
2023-03-11T20:48:22.478Z,91.02
2023-03-11T20:50:52.344Z,91.17
2023-03-11T20:53:22.154Z,91.16
2023-03-11T20:55:51.989Z,91.20
2023-03-11T20:58:25.219Z,91.24
2023-03-11T21:00:55.379Z,91.39
2023-03-11T21:03:25.257Z,91.38
2023-03-11T21:05:55.254Z,91.42
2023-03-11T21:08:25.091Z,91.45
2023-03-11T21:10:55.000Z,91.53
2023-03-11T21:13:27.426Z,91.69
2023-03-11T21:15:57.373Z,91.85
2023-03-11T21:18:27.184Z,91.73
2023-03-11T21:20:57.006Z,91.81
2023-03-11T21:23:26.892Z,91.75
2023-03-11T21:26:01.203Z,91.96
2023-03-11T21:28:34.585Z,91.86
2023-03-11T21:31:06.760Z,91.95
2023-03-11T21:33:36.627Z,91.96
2023-03-11T21:36:08.245Z,92.13
2023-03-11T21:38:38.170Z,92.02
2023-03-11T21:41:10.419Z,92.21
2023-03-11T21:43:44.627Z,92.20
2023-03-11T21:46:17.344Z,92.25
2023-03-11T21:48:47.207Z,92.33
2023-03-11T21:51:17.455Z,92.33
2023-03-11T21:53:48.070Z,92.28
2023-03-11T21:56:22.262Z,92.44
2023-03-11T21:58:54.659Z,92.35
2023-03-11T22:01:24.744Z,92.52
2023-03-11T22:03:55.407Z,92.40
2023-03-11T22:06:25.768Z,92.45
2023-03-11T22:08:55.960Z,92.60
2023-03-11T22:11:25.768Z,92.79
2023-03-11T22:14:00.942Z,92.63
2023-03-11T22:16:30.930Z,92.79
2023-03-11T22:19:00.888Z,92.79
2023-03-11T22:21:30.728Z,92.71
2023-03-11T22:24:00.593Z,92.84
2023-03-11T22:26:30.381Z,92.82
2023-03-11T22:29:04.070Z,92.63
2023-03-11T22:31:37.381Z,92.66
2023-03-11T22:34:07.166Z,92.52
2023-03-11T22:36:37.041Z,92.66
2023-03-11T22:39:07.377Z,92.58
2023-03-11T22:41:37.203Z,92.56
2023-03-11T22:44:09.660Z,92.47
2023-03-11T22:46:39.463Z,92.57
2023-03-11T22:49:09.239Z,92.52
2023-03-11T22:51:39.019Z,92.51
2023-03-11T22:54:10.585Z,92.51
2023-03-11T22:56:47.394Z,92.63
2023-03-11T22:59:24.519Z,92.58
2023-03-11T23:01:54.470Z,92.64
2023-03-11T23:04:24.316Z,92.64
2023-03-11T23:06:54.675Z,92.50
2023-03-11T23:09:25.021Z,92.50
2023-03-11T23:11:55.769Z,92.42
2023-03-11T23:14:43.762Z,92.51
2023-03-11T23:17:14.706Z,92.30
2023-03-11T23:19:44.485Z,92.22
2023-03-11T23:22:14.303Z,92.31
2023-03-11T23:24:44.064Z,92.00
2023-03-11T23:27:13.850Z,92.04
2023-03-11T23:29:49.484Z,92.11
2023-03-11T23:32:19.368Z,91.85
2023-03-11T23:34:49.214Z,91.97
2023-03-11T23:37:19.027Z,91.85
2023-03-11T23:39:48.807Z,91.73
2023-03-11T23:42:25.898Z,91.51
2023-03-11T23:44:58.640Z,91.62
2023-03-11T23:47:28.527Z,91.59
2023-03-11T23:49:58.324Z,91.46
2023-03-11T23:52:28.715Z,91.37
2023-03-11T23:54:58.618Z,91.40
2023-03-11T23:57:28.751Z,91.47
